createdAt,value
2023-03-29T00:02:39.161Z,7.44
2023-03-29T00:05:15.361Z,7.12
2023-03-29T00:07:48.749Z,7.32
2023-03-29T00:10:19.115Z,7.52
2023-03-29T00:12:54.666Z,7.59
2023-03-29T00:15:26.362Z,7.60
2023-03-29T00:17:55.087Z,7.51
2023-03-29T00:20:33.480Z,7.49
2023-03-29T00:23:44.912Z,7.14
2023-03-29T00:26:15.841Z,7.20
2023-03-29T00:28:47.354Z,7.69
2023-03-29T00:31:19.507Z,7.77
2023-03-29T00:33:51.428Z,7.71
2023-03-29T00:36:25.315Z,7.81
2023-03-29T00:38:59.294Z,7.73
2023-03-29T00:41:33.494Z,7.93
2023-03-29T00:44:07.134Z,7.65
2023-03-29T00:46:37.416Z,7.78
2023-03-29T00:49:15.000Z,7.87
2023-03-29T00:51:47.064Z,7.55
2023-03-29T00:54:21.928Z,7.81
2023-03-29T00:56:54.399Z,7.92
2023-03-29T00:59:33.427Z,7.60
2023-03-29T01:02:10.954Z,7.77
2023-03-29T01:04:52.915Z,7.87
2023-03-29T01:07:36.757Z,7.96
2023-03-29T01:10:25.134Z,7.64
2023-03-29T01:13:08.660Z,7.64
2023-03-29T01:15:45.080Z,7.62
2023-03-29T01:18:15.647Z,7.76
2023-03-29T01:21:04.024Z,8.00
2023-03-29T01:23:54.841Z,7.70
2023-03-29T01:26:41.370Z,7.95
2023-03-29T01:29:19.509Z,7.79
2023-03-29T01:32:00.721Z,8.09
2023-03-29T01:34:39.327Z,7.97
2023-03-29T01:37:27.523Z,7.88
2023-03-29T01:40:06.568Z,8.20
2023-03-29T01:43:05.290Z,8.26
2023-03-29T01:45:43.377Z,8.51
2023-03-29T01:48:35.004Z,8.75
2023-03-29T01:51:17.363Z,8.32
2023-03-29T01:54:13.015Z,8.24
2023-03-29T01:56:50.662Z,8.20
2023-03-29T02:00:27.217Z,8.30
2023-03-29T02:03:31.318Z,8.58
2023-03-29T02:06:37.973Z,8.65
2023-03-29T02:09:19.731Z,8.22
2023-03-29T02:11:53.592Z,8.48
2023-03-29T02:14:25.845Z,8.73
2023-03-29T02:16:55.943Z,8.62
2023-03-29T02:19:34.314Z,8.40
2023-03-29T02:22:10.978Z,8.60
2023-03-29T02:24:49.374Z,8.75
2023-03-29T02:27:18.999Z,8.82
2023-03-29T02:29:50.301Z,8.52
2023-03-29T02:32:31.006Z,8.60
2023-03-29T02:35:22.737Z,8.69
2023-03-29T02:38:00.750Z,8.72
2023-03-29T02:40:35.400Z,8.93
2023-03-29T02:43:10.808Z,8.82
2023-03-29T02:45:42.557Z,8.32
2023-03-29T02:48:16.795Z,8.47
2023-03-29T02:50:50.552Z,8.74
2023-03-29T02:53:29.787Z,8.50
2023-03-29T02:56:05.617Z,8.75
2023-03-29T02:58:38.653Z,8.77
2023-03-29T03:01:11.273Z,9.06
2023-03-29T03:03:42.398Z,9.21
2023-03-29T03:06:11.234Z,9.09
2023-03-29T03:08:41.757Z,9.01
2023-03-29T03:11:11.582Z,9.12
2023-03-29T03:13:47.112Z,9.63
2023-03-29T03:16:21.013Z,9.22
2023-03-29T03:18:52.156Z,9.51
2023-03-29T03:21:25.127Z,9.45
2023-03-29T03:23:56.790Z,9.37
2023-03-29T03:26:33.062Z,9.19
2023-03-29T03:29:03.773Z,9.27
2023-03-29T03:32:01.487Z,9.01
2023-03-29T03:34:54.624Z,8.58
2023-03-29T03:37:33.316Z,8.92
2023-03-29T03:40:05.050Z,9.19
2023-03-29T03:42:34.956Z,9.36
2023-03-29T03:45:06.302Z,9.49
2023-03-29T03:47:52.932Z,9.50
2023-03-29T03:50:34.832Z,9.34
2023-03-29T03:53:07.737Z,9.26
2023-03-29T03:56:10.339Z,9.22
2023-03-29T03:59:01.452Z,9.32
2023-03-29T04:01:44.035Z,9.45
2023-03-29T04:04:22.623Z,9.44
2023-03-29T04:07:18.112Z,9.30
2023-03-29T04:10:34.547Z,9.35
2023-03-29T04:13:18.806Z,9.46
2023-03-29T04:16:29.556Z,9.50
2023-03-29T04:19:08.784Z,9.61
2023-03-29T04:21:39.486Z,9.62
2023-03-29T04:24:10.551Z,9.69
2023-03-29T04:26:43.172Z,9.57
2023-03-29T04:29:32.686Z,9.47
2023-03-29T04:32:15.154Z,9.66
2023-03-29T04:34:51.391Z,9.80
2023-03-29T04:37:25.175Z,9.52
2023-03-29T04:40:02.065Z,9.47
2023-03-29T04:42:39.200Z,9.57
2023-03-29T04:45:10.468Z,9.60
2023-03-29T04:48:03.315Z,9.81
2023-03-29T04:50:37.480Z,9.48
2023-03-29T04:53:10.419Z,9.47
2023-03-29T04:55:40.965Z,9.80
2023-03-29T04:58:14.897Z,9.19
2023-03-29T05:00:45.196Z,9.61
2023-03-29T05:03:26.623Z,9.58
2023-03-29T05:06:08.859Z,9.79
2023-03-29T05:08:42.106Z,9.70
2023-03-29T05:11:37.314Z,9.71
2023-03-29T05:14:10.157Z,9.81
2023-03-29T05:16:43.030Z,9.78
2023-03-29T05:19:14.266Z,9.73
2023-03-29T05:21:51.503Z,9.81
2023-03-29T05:24:27.006Z,9.71
2023-03-29T05:27:10.693Z,9.83
2023-03-29T05:29:41.327Z,9.45
2023-03-29T05:32:41.512Z,9.81
2023-03-29T05:35:13.381Z,9.27
2023-03-29T05:37:43.408Z,9.80
2023-03-29T05:40:14.100Z,9.64
2023-03-29T05:43:03.524Z,9.87
2023-03-29T05:45:34.605Z,9.78
2023-03-29T05:48:10.555Z,9.49
2023-03-29T05:50:47.407Z,9.73
2023-03-29T05:53:19.457Z,9.85
2023-03-29T05:55:50.925Z,9.86
2023-03-29T05:58:22.223Z,9.69
2023-03-29T06:00:53.142Z,9.94
2023-03-29T06:03:43.104Z,9.68
2023-03-29T06:06:17.926Z,9.80
2023-03-29T06:08:49.909Z,9.95
2023-03-29T06:11:41.420Z,9.70
2023-03-29T06:14:41.737Z,9.60
2023-03-29T06:17:35.282Z,9.61
2023-03-29T06:20:11.441Z,9.82
2023-03-29T06:22:48.825Z,10.00
2023-03-29T06:25:21.295Z,9.79
2023-03-29T06:27:54.525Z,9.66
2023-03-29T06:30:23.690Z,9.85
2023-03-29T06:33:03.378Z,9.80
2023-03-29T06:35:57.698Z,8.91
2023-03-29T06:38:33.201Z,9.70
2023-03-29T06:41:20.708Z,9.43
2023-03-29T06:44:13.533Z,9.60
2023-03-29T06:47:05.847Z,9.37
2023-03-29T06:49:35.582Z,9.55
2023-03-29T06:52:41.626Z,9.33
2023-03-29T06:55:13.814Z,9.82
2023-03-29T06:57:43.645Z,9.64
2023-03-29T07:00:30.459Z,10.06
2023-03-29T07:03:33.985Z,9.61
2023-03-29T07:06:13.550Z,9.76
2023-03-29T07:08:50.158Z,9.86
2023-03-29T07:11:34.639Z,9.74
2023-03-29T07:14:16.990Z,9.88
2023-03-29T07:16:47.839Z,9.93
2023-03-29T07:19:23.277Z,9.73
2023-03-29T07:22:01.719Z,9.74
2023-03-29T07:24:51.563Z,9.90
2023-03-29T07:27:24.819Z,9.85
2023-03-29T07:29:55.205Z,9.93
2023-03-29T07:32:37.448Z,9.91
2023-03-29T07:35:27.356Z,9.68
2023-03-29T07:38:07.551Z,9.84
2023-03-29T07:40:41.996Z,9.83
2023-03-29T07:43:33.024Z,9.12
2023-03-29T07:46:06.868Z,9.65
2023-03-29T07:48:41.549Z,9.87
2023-03-29T07:51:13.677Z,10.08
2023-03-29T07:53:46.594Z,10.01
2023-03-29T07:56:35.272Z,9.80
2023-03-29T07:59:26.335Z,9.49
2023-03-29T08:02:11.308Z,9.80
2023-03-29T08:04:49.045Z,9.73
2023-03-29T08:07:26.486Z,9.80
2023-03-29T08:10:14.687Z,9.47
2023-03-29T08:13:10.897Z,9.62
2023-03-29T08:16:10.200Z,9.67
2023-03-29T08:18:49.212Z,9.75
2023-03-29T08:21:21.577Z,9.81
2023-03-29T08:23:53.334Z,9.87
2023-03-29T08:26:42.643Z,9.88
2023-03-29T08:29:13.708Z,10.27
2023-03-29T08:31:45.458Z,10.15
2023-03-29T08:34:15.049Z,10.19
2023-03-29T08:36:49.254Z,9.69
2023-03-29T08:39:42.776Z,9.71
2023-03-29T08:42:51.498Z,9.95
2023-03-29T08:45:50.806Z,9.98
2023-03-29T08:48:31.270Z,10.08
2023-03-29T08:51:14.049Z,9.96
2023-03-29T08:53:53.664Z,10.07
2023-03-29T08:56:46.890Z,10.04
2023-03-29T08:59:41.238Z,10.00
2023-03-29T09:02:23.506Z,10.08
2023-03-29T09:05:19.196Z,10.40
2023-03-29T09:08:18.697Z,10.24
2023-03-29T09:11:01.452Z,10.41
2023-03-29T09:13:41.032Z,10.06
2023-03-29T09:16:39.633Z,10.32
2023-03-29T09:19:42.225Z,9.67
2023-03-29T09:22:21.416Z,9.54
2023-03-29T09:25:27.830Z,9.09
2023-03-29T09:28:05.594Z,9.42
2023-03-29T09:30:55.115Z,9.57
2023-03-29T09:33:38.451Z,9.14
2023-03-29T09:36:26.717Z,9.15
2023-03-29T09:39:01.489Z,9.35
2023-03-29T09:41:54.396Z,9.60
2023-03-29T09:44:31.134Z,9.45
2023-03-29T09:47:24.993Z,9.76
2023-03-29T09:50:01.738Z,9.52
2023-03-29T09:52:33.077Z,9.73
2023-03-29T09:55:19.126Z,9.81
2023-03-29T09:58:03.617Z,9.79
2023-03-29T10:00:42.914Z,9.92
2023-03-29T10:03:25.053Z,10.24
2023-03-29T10:06:06.570Z,10.35
2023-03-29T10:08:57.893Z,10.82
2023-03-29T10:11:59.244Z,10.39
2023-03-29T10:14:36.095Z,10.75
2023-03-29T10:17:17.316Z,10.52
2023-03-29T10:19:57.377Z,10.54
2023-03-29T10:22:38.726Z,10.36
2023-03-29T10:25:19.024Z,10.58
2023-03-29T10:27:49.590Z,10.83
2023-03-29T10:30:26.839Z,10.79
2023-03-29T10:33:01.412Z,10.58
2023-03-29T10:35:43.295Z,10.78
2023-03-29T10:38:17.678Z,10.87
2023-03-29T10:40:55.385Z,10.58
2023-03-29T10:43:44.047Z,10.60
2023-03-29T10:46:28.057Z,10.39
2023-03-29T10:49:10.837Z,10.71
2023-03-29T10:55:07.137Z,10.33
2023-03-29T10:57:43.392Z,10.30
2023-03-29T11:00:22.907Z,10.53
2023-03-29T11:03:26.816Z,10.65
2023-03-29T11:06:09.209Z,10.81
2023-03-29T11:08:54.947Z,10.60
2023-03-29T11:11:45.387Z,10.38
2023-03-29T11:14:43.374Z,10.38
2023-03-29T11:17:35.804Z,10.46
2023-03-29T11:20:25.329Z,10.46
2023-03-29T11:23:01.603Z,10.58
2023-03-29T11:25:55.242Z,10.62
2023-03-29T11:28:39.471Z,10.31
2023-03-29T11:31:30.021Z,10.69
2023-03-29T11:34:27.558Z,10.66
2023-03-29T11:37:25.271Z,10.31
2023-03-29T11:40:23.593Z,10.82
2023-03-29T11:42:57.776Z,10.73
2023-03-29T11:45:43.170Z,10.30
2023-03-29T11:48:23.061Z,10.68
2023-03-29T11:51:51.336Z,10.78
2023-03-29T11:54:34.243Z,10.44
2023-03-29T11:57:43.182Z,10.76
2023-03-29T12:00:22.293Z,11.00
2023-03-29T12:02:54.620Z,10.63
2023-03-29T12:05:34.254Z,10.68
2023-03-29T12:08:27.138Z,11.00
2023-03-29T12:11:31.798Z,10.71
2023-03-29T12:14:41.203Z,10.71
2023-03-29T12:17:20.787Z,10.34
2023-03-29T12:20:14.500Z,10.61
2023-03-29T12:22:49.973Z,10.46
2023-03-29T12:29:38.351Z,10.04
2023-03-29T12:32:27.407Z,10.14
2023-03-29T12:35:26.406Z,10.03
2023-03-29T12:38:16.856Z,10.03
2023-03-29T12:41:19.569Z,10.10
2023-03-29T12:44:43.072Z,9.86
2023-03-29T12:47:27.125Z,9.84
2023-03-29T12:50:01.397Z,9.52
2023-03-29T12:52:38.041Z,9.44
2023-03-29T12:55:30.023Z,9.12
2023-03-29T12:58:12.996Z,9.18
2023-03-29T13:00:42.881Z,9.30
2023-03-29T13:03:46.956Z,9.16
2023-03-29T13:06:47.288Z,9.11
2023-03-29T13:09:31.584Z,8.60
2023-03-29T13:12:12.042Z,8.97
2023-03-29T13:14:45.977Z,8.70
2023-03-29T13:17:33.117Z,8.49
2023-03-29T13:20:05.018Z,8.67
2023-03-29T13:23:07.757Z,8.26
2023-03-29T13:25:51.954Z,8.21
2023-03-29T13:28:30.222Z,8.21
2023-03-29T13:31:09.085Z,8.21
2023-03-29T13:33:43.651Z,8.32
2023-03-29T13:36:37.374Z,8.20
2023-03-29T13:39:30.632Z,7.98
2023-03-29T13:42:21.004Z,7.88
2023-03-29T13:44:51.090Z,8.09
2023-03-29T13:47:20.907Z,8.25
2023-03-29T13:50:02.676Z,8.04
2023-03-29T13:52:53.905Z,7.73
2023-03-29T13:55:38.790Z,7.86
2023-03-29T13:58:34.956Z,7.60
2023-03-29T14:02:13.859Z,7.67
2023-03-29T14:04:50.184Z,7.78
2023-03-29T14:07:33.917Z,8.06
2023-03-29T14:10:05.002Z,8.03
2023-03-29T14:12:43.134Z,7.91
2023-03-29T14:15:28.031Z,7.59
2023-03-29T14:18:03.618Z,8.05
2023-03-29T14:20:35.666Z,8.16
2023-03-29T14:23:16.129Z,7.85
2023-03-29T14:25:50.845Z,8.18
2023-03-29T14:28:45.873Z,7.87
2023-03-29T14:31:23.114Z,7.96
2023-03-29T14:33:57.049Z,7.95
2023-03-29T14:36:35.630Z,7.92
2023-03-29T14:39:24.063Z,7.50
2023-03-29T14:42:17.612Z,7.95
2023-03-29T14:44:50.511Z,7.74
2023-03-29T14:47:31.464Z,7.24
2023-03-29T14:50:05.913Z,7.66
2023-03-29T14:52:38.293Z,7.36
2023-03-29T14:55:10.700Z,7.66
2023-03-29T14:58:03.270Z,6.86
2023-03-29T15:00:50.913Z,7.08
2023-03-29T15:03:23.232Z,7.36
2023-03-29T15:05:59.276Z,7.27
2023-03-29T15:08:38.564Z,6.57
2023-03-29T15:11:33.473Z,6.85
2023-03-29T15:14:21.217Z,6.95
2023-03-29T15:16:50.872Z,6.13
2023-03-29T15:20:08.541Z,7.13
2023-03-29T15:22:23.609Z,7.03
2023-03-29T15:24:54.840Z,7.33
2023-03-29T15:27:23.946Z,7.23
2023-03-29T15:30:03.329Z,7.02
2023-03-29T15:32:48.123Z,7.00
2023-03-29T15:41:49.936Z,6.55
2023-03-29T15:44:27.171Z,6.99
2023-03-29T15:47:31.926Z,6.63
2023-03-29T15:50:07.996Z,6.88
2023-03-29T15:53:34.686Z,6.88
2023-03-29T15:57:07.564Z,6.62
2023-03-29T16:00:02.132Z,7.09
2023-03-29T16:04:46.009Z,6.32
2023-03-29T16:13:41.266Z,6.28
2023-03-29T16:17:16.835Z,6.55
2023-03-29T16:20:06.376Z,7.25
2023-03-29T16:22:35.274Z,7.04
2023-03-29T16:25:19.400Z,6.92
2023-03-29T16:28:22.097Z,6.87
2023-03-29T16:30:52.117Z,6.80
2023-03-29T16:34:43.157Z,6.90
2023-03-29T16:41:55.784Z,6.44
2023-03-29T16:50:04.303Z,6.07
2023-03-29T16:54:18.466Z,5.73
2023-03-29T17:01:41.940Z,6.36
2023-03-29T17:04:22.804Z,6.62
2023-03-29T17:06:54.275Z,6.74
2023-03-29T17:09:31.354Z,6.49
2023-03-29T17:12:38.747Z,6.11
2023-03-29T17:16:25.884Z,6.11
2023-03-29T17:22:13.668Z,6.48
2023-03-29T17:24:53.268Z,6.38
2023-03-29T17:27:25.446Z,6.61
2023-03-29T17:29:57.736Z,6.77
2023-03-29T17:32:37.115Z,6.84
2023-03-29T17:35:20.741Z,6.60
2023-03-29T17:37:57.006Z,6.37
2023-03-29T17:40:35.354Z,5.93
2023-03-29T17:43:06.191Z,6.07
2023-03-29T17:45:40.281Z,5.96
2023-03-29T17:48:10.213Z,5.95
2023-03-29T17:50:43.415Z,6.29
2023-03-29T17:53:15.507Z,5.90
2023-03-29T17:55:46.448Z,6.05
2023-03-29T17:58:19.373Z,6.11
2023-03-29T18:00:54.241Z,5.84
2023-03-29T18:03:31.392Z,6.09
2023-03-29T18:06:08.992Z,6.18
2023-03-29T18:08:43.527Z,5.68
2023-03-29T18:11:46.520Z,5.96
2023-03-29T18:14:15.431Z,5.63
2023-03-29T18:16:48.643Z,5.86
2023-03-29T18:19:21.587Z,5.71
2023-03-29T18:21:52.385Z,5.74
2023-03-29T18:24:23.876Z,6.22
2023-03-29T18:26:56.914Z,5.93
2023-03-29T18:29:33.037Z,5.91
2023-03-29T18:32:06.922Z,5.78
2023-03-29T18:34:36.354Z,5.68
2023-03-29T18:38:12.447Z,4.82
2023-03-29T18:41:19.425Z,4.82
2023-03-29T18:43:51.409Z,5.57
2023-03-29T18:49:34.347Z,4.97
2023-03-29T18:52:54.666Z,4.84
2023-03-29T18:55:33.891Z,5.47
2023-03-29T19:08:47.893Z,5.13
2023-03-29T19:16:46.458Z,4.47
2023-03-29T19:26:19.311Z,4.79
2023-03-29T19:28:49.081Z,5.22
2023-03-29T19:31:22.288Z,4.96
2023-03-29T19:33:51.515Z,5.11
2023-03-29T19:36:22.854Z,5.54
2023-03-29T19:38:57.253Z,5.32
2023-03-29T19:41:35.743Z,5.36
2023-03-29T19:44:11.277Z,5.27
2023-03-29T19:47:54.314Z,4.59
2023-03-29T19:50:25.627Z,4.87
2023-03-29T19:52:59.135Z,5.27
2023-03-29T19:55:27.831Z,4.74
2023-03-29T19:57:57.712Z,5.10
2023-03-29T20:00:27.938Z,4.86
2023-03-29T20:02:57.939Z,5.27
2023-03-29T20:05:27.551Z,5.29
2023-03-29T20:07:57.907Z,5.30
2023-03-29T20:10:27.768Z,5.13
2023-03-29T20:12:57.823Z,5.18
2023-03-29T20:15:28.928Z,5.36
2023-03-29T20:18:01.461Z,5.48
2023-03-29T20:24:15.573Z,4.81
2023-03-29T20:26:45.168Z,4.74
2023-03-29T20:29:15.803Z,4.80
2023-03-29T20:31:46.561Z,5.10
2023-03-29T20:34:15.284Z,5.19
2023-03-29T20:36:45.029Z,4.70
2023-03-29T20:39:14.437Z,5.15
2023-03-29T20:41:48.438Z,5.16
2023-03-29T20:44:19.080Z,5.13
2023-03-29T20:46:54.829Z,4.81
2023-03-29T20:49:27.136Z,4.62
2023-03-29T20:55:24.407Z,4.78
2023-03-29T20:57:55.270Z,5.08
2023-03-29T21:00:26.244Z,4.83
2023-03-29T21:02:57.659Z,5.02
2023-03-29T21:05:33.300Z,4.74
2023-03-29T21:08:03.413Z,4.80
2023-03-29T21:10:33.878Z,5.02
2023-03-29T21:17:10.866Z,4.84
2023-03-29T21:20:15.824Z,4.80
2023-03-29T21:22:45.554Z,4.70
2023-03-29T21:25:17.215Z,4.70
2023-03-29T21:27:47.102Z,5.35
2023-03-29T21:30:15.905Z,4.68
2023-03-29T21:32:50.187Z,4.63
2023-03-29T21:35:20.074Z,4.84
2023-03-29T21:37:49.571Z,4.90
2023-03-29T21:40:21.101Z,4.86
2023-03-29T21:43:07.644Z,4.24
2023-03-29T21:45:38.439Z,4.59
2023-03-29T21:48:08.033Z,4.91
2023-03-29T21:50:37.243Z,5.14
2023-03-29T21:53:05.568Z,4.76
2023-03-29T21:55:38.921Z,5.01
2023-03-29T21:58:08.488Z,3.79
2023-03-29T22:00:37.559Z,4.93
2023-03-29T22:03:06.758Z,4.72
2023-03-29T22:05:35.581Z,5.00
2023-03-29T22:08:10.794Z,5.15
2023-03-29T22:10:42.901Z,5.09
2023-03-29T22:13:11.462Z,5.30
2023-03-29T22:15:48.389Z,5.67
2023-03-29T22:18:17.394Z,5.25
2023-03-29T22:20:46.461Z,5.20
2023-03-29T22:23:15.912Z,5.05
2023-03-29T22:25:45.375Z,4.87
2023-03-29T22:28:14.622Z,5.06
2023-03-29T22:30:43.462Z,5.43
2023-03-29T22:33:13.095Z,5.01
2023-03-29T22:35:42.453Z,4.73
2023-03-29T22:38:11.175Z,5.01
2023-03-29T22:40:42.777Z,5.10
2023-03-29T22:43:11.601Z,4.97
2023-03-29T22:45:41.812Z,5.25
2023-03-29T22:48:11.441Z,5.23
2023-03-29T22:50:43.345Z,4.93
2023-03-29T22:53:12.319Z,5.04
2023-03-29T22:55:43.019Z,5.01
2023-03-29T22:58:11.340Z,5.08
2023-03-29T23:00:41.557Z,5.49
2023-03-29T23:03:10.999Z,4.95
2023-03-29T23:05:39.512Z,5.11
2023-03-29T23:08:13.991Z,5.02
2023-03-29T23:10:55.105Z,5.14
2023-03-29T23:13:37.252Z,5.38
2023-03-29T23:16:17.014Z,5.38
2023-03-29T23:18:47.927Z,5.45
2023-03-29T23:21:22.736Z,5.15
2023-03-29T23:23:54.315Z,5.38
2023-03-29T23:26:24.416Z,5.13
2023-03-29T23:32:45.186Z,4.80
2023-03-29T23:35:17.570Z,5.16
2023-03-29T23:37:46.708Z,4.93
2023-03-29T23:40:17.732Z,4.81
2023-03-29T23:42:49.475Z,4.45
2023-03-29T23:45:33.466Z,4.56
2023-03-29T23:48:03.513Z,5.06
2023-03-29T23:50:37.072Z,5.20
2023-03-29T23:53:31.380Z,5.19
2023-03-29T23:56:18.392Z,5.17
2023-03-29T23:58:47.440Z,5.12
